sensor_id;sensor_type;location;lat;lon;timestamp;pressure;altitude;pressure_sealevel;temperature;humidity
12203;BME280;6164;42.178;24.622;2022-07-29T00:01:08;99639.78;;;23.85;63.93
12203;BME280;6164;42.178;24.622;2022-07-29T00:03:34;99642.72;;;23.83;63.63
12203;BME280;6164;42.178;24.622;2022-07-29T00:06:02;99643.25;;;23.80;63.86
12203;BME280;6164;42.178;24.622;2022-07-29T00:08:28;99641.06;;;23.77;63.85
12203;BME280;6164;42.178;24.622;2022-07-29T00:10:55;99638.09;;;23.79;65.08
12203;BME280;6164;42.178;24.622;2022-07-29T00:13:21;99636.19;;;23.79;65.90
12203;BME280;6164;42.178;24.622;2022-07-29T00:15:48;99635.66;;;23.77;65.00
12203;BME280;6164;42.178;24.622;2022-07-29T00:18:14;99646.38;;;23.72;64.97
12203;BME280;6164;42.178;24.622;2022-07-29T00:20:41;99650.25;;;23.60;65.14
12203;BME280;6164;42.178;24.622;2022-07-29T00:23:09;99649.47;;;23.37;64.65
12203;BME280;6164;42.178;24.622;2022-07-29T00:25:35;99642.78;;;23.07;65.26
12203;BME280;6164;42.178;24.622;2022-07-29T00:28:02;99636.63;;;22.90;65.71
12203;BME280;6164;42.178;24.622;2022-07-29T00:30:28;99635.41;;;22.81;65.56
12203;BME280;6164;42.178;24.622;2022-07-29T00:32:55;99633.28;;;22.83;65.84
12203;BME280;6164;42.178;24.622;2022-07-29T00:35:21;99637.28;;;22.80;65.91
12203;BME280;6164;42.178;24.622;2022-07-29T00:38:05;99628.97;;;22.65;65.03
12203;BME280;6164;42.178;24.622;2022-07-29T00:40:33;99633.84;;;22.52;65.84
12203;BME280;6164;42.178;24.622;2022-07-29T00:42:59;99638.53;;;22.28;64.32
12203;BME280;6164;42.178;24.622;2022-07-29T00:45:30;99633.91;;;21.95;64.88
12203;BME280;6164;42.178;24.622;2022-07-29T00:47:56;99634.09;;;21.77;66.50
12203;BME280;6164;42.178;24.622;2022-07-29T00:50:23;99636.66;;;21.72;67.60
12203;BME280;6164;42.178;24.622;2022-07-29T00:52:49;99636.81;;;21.77;68.57
12203;BME280;6164;42.178;24.622;2022-07-29T00:55:16;99643.56;;;21.80;68.62
12203;BME280;6164;42.178;24.622;2022-07-29T00:57:45;99640.38;;;21.83;68.61
12203;BME280;6164;42.178;24.622;2022-07-29T01:00:13;99640.88;;;21.68;69.85
12203;BME280;6164;42.178;24.622;2022-07-29T01:02:40;99644.41;;;21.57;70.72
12203;BME280;6164;42.178;24.622;2022-07-29T01:05:07;99652.03;;;21.49;71.54
12203;BME280;6164;42.178;24.622;2022-07-29T01:07:34;99650.97;;;21.61;71.46
12203;BME280;6164;42.178;24.622;2022-07-29T01:10:01;99646.53;;;21.55;71.68
12203;BME280;6164;42.178;24.622;2022-07-29T01:12:28;99654.97;;;21.36;73.46
12203;BME280;6164;42.178;24.622;2022-07-29T01:14:58;99649.97;;;21.16;74.44
12203;BME280;6164;42.178;24.622;2022-07-29T01:17:26;99651.38;;;21.07;74.96
12203;BME280;6164;42.178;24.622;2022-07-29T01:19:56;99646.25;;;21.06;74.32
12203;BME280;6164;42.178;24.622;2022-07-29T01:22:42;99640.19;;;21.10;74.02
12203;BME280;6164;42.178;24.622;2022-07-29T01:25:30;99637.38;;;21.17;73.57
12203;BME280;6164;42.178;24.622;2022-07-29T01:28:03;99635.25;;;21.19;72.81
12203;BME280;6164;42.178;24.622;2022-07-29T01:30:35;99638.28;;;21.22;72.25
12203;BME280;6164;42.178;24.622;2022-07-29T01:33:06;99639.22;;;21.28;71.93
12203;BME280;6164;42.178;24.622;2022-07-29T01:35:34;99633.50;;;21.36;71.73
12203;BME280;6164;42.178;24.622;2022-07-29T01:38:03;99632.22;;;21.38;71.91
12203;BME280;6164;42.178;24.622;2022-07-29T01:40:33;99637.13;;;21.30;72.64
12203;BME280;6164;42.178;24.622;2022-07-29T01:43:03;99639.13;;;21.00;75.57
12203;BME280;6164;42.178;24.622;2022-07-29T01:45:33;99643.28;;;20.84;75.72
12203;BME280;6164;42.178;24.622;2022-07-29T01:48:05;99645.53;;;20.75;76.42
12203;BME280;6164;42.178;24.622;2022-07-29T01:50:33;99644.59;;;20.81;77.42
12203;BME280;6164;42.178;24.622;2022-07-29T01:53:01;99635.59;;;20.76;78.02
12203;BME280;6164;42.178;24.622;2022-07-29T01:55:29;99638.16;;;20.71;78.43
12203;BME280;6164;42.178;24.622;2022-07-29T01:57:57;99633.50;;;20.78;79.26
12203;BME280;6164;42.178;24.622;2022-07-29T02:00:25;99628.03;;;20.84;78.38
12203;BME280;6164;42.178;24.622;2022-07-29T02:02:52;99630.81;;;20.89;78.52
12203;BME280;6164;42.178;24.622;2022-07-29T02:05:21;99629.06;;;20.95;77.86
12203;BME280;6164;42.178;24.622;2022-07-29T02:07:49;99624.34;;;20.97;77.14
12203;BME280;6164;42.178;24.622;2022-07-29T02:10:19;99624.88;;;20.99;76.52
12203;BME280;6164;42.178;24.622;2022-07-29T02:12:47;99624.88;;;20.99;76.93
12203;BME280;6164;42.178;24.622;2022-07-29T02:15:14;99622.22;;;20.99;77.10
12203;BME280;6164;42.178;24.622;2022-07-29T02:17:43;99613.25;;;21.05;77.03
12203;BME280;6164;42.178;24.622;2022-07-29T02:20:11;99628.75;;;21.15;77.24
12203;BME280;6164;42.178;24.622;2022-07-29T02:22:40;99629.88;;;21.19;77.61
12203;BME280;6164;42.178;24.622;2022-07-29T02:25:07;99621.63;;;21.20;77.60
12203;BME280;6164;42.178;24.622;2022-07-29T02:27:34;99621.63;;;21.20;77.39
12203;BME280;6164;42.178;24.622;2022-07-29T02:30:01;99626.66;;;21.17;76.95
12203;BME280;6164;42.178;24.622;2022-07-29T02:32:29;99626.66;;;21.17;77.55
12203;BME280;6164;42.178;24.622;2022-07-29T02:34:57;99621.03;;;21.18;79.54
12203;BME280;6164;42.178;24.622;2022-07-29T02:37:24;99614.72;;;21.13;78.17
12203;BME280;6164;42.178;24.622;2022-07-29T02:39:54;99618.47;;;21.12;79.18
12203;BME280;6164;42.178;24.622;2022-07-29T02:42:21;99618.00;;;21.03;79.57
12203;BME280;6164;42.178;24.622;2022-07-29T02:44:47;99621.03;;;20.95;80.03
12203;BME280;6164;42.178;24.622;2022-07-29T02:47:16;99614.59;;;20.96;79.42
12203;BME280;6164;42.178;24.622;2022-07-29T02:49:46;99621.25;;;20.93;80.80
12203;BME280;6164;42.178;24.622;2022-07-29T02:52:18;99623.00;;;20.88;79.96
12203;BME280;6164;42.178;24.622;2022-07-29T02:54:46;99626.03;;;20.80;80.78
12203;BME280;6164;42.178;24.622;2022-07-29T02:57:18;99621.94;;;20.66;82.21
12203;BME280;6164;42.178;24.622;2022-07-29T02:59:45;99619.94;;;20.50;84.47
12203;BME280;6164;42.178;24.622;2022-07-29T03:02:14;99621.59;;;20.51;85.88
12203;BME280;6164;42.178;24.622;2022-07-29T03:04:41;99614.59;;;20.50;86.52
12203;BME280;6164;42.178;24.622;2022-07-29T03:07:09;99621.94;;;20.54;87.12
12203;BME280;6164;42.178;24.622;2022-07-29T03:09:37;99622.63;;;20.50;86.89
12203;BME280;6164;42.178;24.622;2022-07-29T03:12:04;99631.00;;;20.30;87.83
12203;BME280;6164;42.178;24.622;2022-07-29T03:14:33;99638.84;;;20.14;88.83
12203;BME280;6164;42.178;24.622;2022-07-29T03:17:00;99636.03;;;20.09;89.05
12203;BME280;6164;42.178;24.622;2022-07-29T03:19:26;99641.63;;;20.07;89.12
12203;BME280;6164;42.178;24.622;2022-07-29T03:21:54;99645.16;;;19.90;88.68
12203;BME280;6164;42.178;24.622;2022-07-29T03:24:25;99656.50;;;19.74;89.31
12203;BME280;6164;42.178;24.622;2022-07-29T03:26:52;99652.97;;;19.61;90.40
12203;BME280;6164;42.178;24.622;2022-07-29T03:29:18;99654.44;;;19.57;91.09
12203;BME280;6164;42.178;24.622;2022-07-29T03:31:46;99654.88;;;19.54;90.93
12203;BME280;6164;42.178;24.622;2022-07-29T03:34:13;99662.31;;;19.52;91.03
12203;BME280;6164;42.178;24.622;2022-07-29T03:36:39;99655.13;;;19.53;91.75
12203;BME280;6164;42.178;24.622;2022-07-29T03:39:06;99664.22;;;19.52;91.90
12203;BME280;6164;42.178;24.622;2022-07-29T03:41:34;99659.47;;;19.65;90.74
12203;BME280;6164;42.178;24.622;2022-07-29T03:44:02;99658.00;;;19.70;89.78
12203;BME280;6164;42.178;24.622;2022-07-29T03:46:29;99657.47;;;19.79;88.84
12203;BME280;6164;42.178;24.622;2022-07-29T03:48:59;99653.44;;;19.88;88.23
12203;BME280;6164;42.178;24.622;2022-07-29T03:51:27;99656.59;;;19.97;87.95
12203;BME280;6164;42.178;24.622;2022-07-29T03:53:53;99661.06;;;20.03;86.93
12203;BME280;6164;42.178;24.622;2022-07-29T03:56:20;99659.56;;;20.07;86.70
12203;BME280;6164;42.178;24.622;2022-07-29T03:58:47;99660.59;;;20.06;87.00
12203;BME280;6164;42.178;24.622;2022-07-29T04:01:15;99668.31;;;20.14;87.00
12203;BME280;6164;42.178;24.622;2022-07-29T04:03:42;99664.03;;;20.13;86.83
12203;BME280;6164;42.178;24.622;2022-07-29T04:06:11;99671.31;;;20.24;87.05
12203;BME280;6164;42.178;24.622;2022-07-29T04:08:38;99671.47;;;20.40;86.45
12203;BME280;6164;42.178;24.622;2022-07-29T04:11:05;99668.81;;;20.52;85.49
12203;BME280;6164;42.178;24.622;2022-07-29T04:13:32;99667.22;;;20.62;83.44
12203;BME280;6164;42.178;24.622;2022-07-29T04:15:58;99667.53;;;20.66;83.00
12203;BME280;6164;42.178;24.622;2022-07-29T04:18:25;99668.16;;;20.79;82.47
12203;BME280;6164;42.178;24.622;2022-07-29T04:20:51;99666.41;;;20.85;82.61
12203;BME280;6164;42.178;24.622;2022-07-29T04:23:19;99670.59;;;20.92;82.46
12203;BME280;6164;42.178;24.622;2022-07-29T04:25:46;99666.22;;;20.98;83.08
12203;BME280;6164;42.178;24.622;2022-07-29T04:28:12;99666.44;;;21.08;83.75
12203;BME280;6164;42.178;24.622;2022-07-29T04:30:39;99668.06;;;21.09;82.38
12203;BME280;6164;42.178;24.622;2022-07-29T04:33:06;99669.38;;;21.18;81.81
12203;BME280;6164;42.178;24.622;2022-07-29T04:35:34;99669.38;;;21.18;81.91
12203;BME280;6164;42.178;24.622;2022-07-29T04:38:01;99668.19;;;21.26;81.87
12203;BME280;6164;42.178;24.622;2022-07-29T04:40:29;99671.81;;;21.31;82.41
12203;BME280;6164;42.178;24.622;2022-07-29T04:42:55;99670.63;;;21.39;82.59
12203;BME280;6164;42.178;24.622;2022-07-29T04:45:22;99675.47;;;21.53;82.36
12203;BME280;6164;42.178;24.622;2022-07-29T04:47:48;99679.94;;;21.59;82.47
12203;BME280;6164;42.178;24.622;2022-07-29T04:50:15;99674.41;;;21.66;80.22
12203;BME280;6164;42.178;24.622;2022-07-29T04:52:41;99683.06;;;21.79;78.74
12203;BME280;6164;42.178;24.622;2022-07-29T04:55:08;99675.41;;;21.88;78.21
12203;BME280;6164;42.178;24.622;2022-07-29T04:57:36;99674.94;;;22.02;78.23
12203;BME280;6164;42.178;24.622;2022-07-29T05:00:03;99680.75;;;21.99;79.25
12203;BME280;6164;42.178;24.622;2022-07-29T05:02:30;99689.13;;;22.14;80.31
12203;BME280;6164;42.178;24.622;2022-07-29T05:04:57;99686.03;;;22.23;79.99
12203;BME280;6164;42.178;24.622;2022-07-29T05:07:23;99685.19;;;22.34;79.13
12203;BME280;6164;42.178;24.622;2022-07-29T05:09:50;99682.88;;;22.42;77.08
12203;BME280;6164;42.178;24.622;2022-07-29T05:12:17;99678.75;;;22.51;74.71
12203;BME280;6164;42.178;24.622;2022-07-29T05:14:45;99684.00;;;22.58;74.01
12203;BME280;6164;42.178;24.622;2022-07-29T05:17:11;99688.16;;;22.65;72.71
12203;BME280;6164;42.178;24.622;2022-07-29T05:19:38;99680.50;;;22.74;72.33
12203;BME280;6164;42.178;24.622;2022-07-29T05:22:04;99677.41;;;22.82;72.85
12203;BME280;6164;42.178;24.622;2022-07-29T05:24:31;99673.31;;;22.96;72.35
12203;BME280;6164;42.178;24.622;2022-07-29T05:26:57;99685.00;;;23.01;70.50
12203;BME280;6164;42.178;24.622;2022-07-29T05:29:24;99684.25;;;23.06;69.07
12203;BME280;6164;42.178;24.622;2022-07-29T05:31:52;99683.00;;;23.13;69.53
12203;BME280;6164;42.178;24.622;2022-07-29T05:34:19;99687.97;;;23.21;69.14
12203;BME280;6164;42.178;24.622;2022-07-29T05:36:45;99683.25;;;23.28;67.69
12203;BME280;6164;42.178;24.622;2022-07-29T05:39:12;99689.38;;;23.40;68.19
12203;BME280;6164;42.178;24.622;2022-07-29T05:41:39;99684.38;;;23.49;67.66
12203;BME280;6164;42.178;24.622;2022-07-29T05:44:05;99689.56;;;23.56;65.93
12203;BME280;6164;42.178;24.622;2022-07-29T05:46:32;99700.09;;;23.57;65.30
12203;BME280;6164;42.178;24.622;2022-07-29T05:48:59;99699.66;;;23.65;65.53
12203;BME280;6164;42.178;24.622;2022-07-29T05:51:27;99701.41;;;23.76;66.11
12203;BME280;6164;42.178;24.622;2022-07-29T05:53:54;99708.56;;;23.87;65.08
12203;BME280;6164;42.178;24.622;2022-07-29T05:56:21;99710.25;;;23.93;64.75
12203;BME280;6164;42.178;24.622;2022-07-29T05:58:48;99715.56;;;24.05;63.46
12203;BME280;6164;42.178;24.622;2022-07-29T06:01:14;99712.66;;;24.11;63.06
12203;BME280;6164;42.178;24.622;2022-07-29T06:03:41;99710.63;;;24.23;63.70
12203;BME280;6164;42.178;24.622;2022-07-29T06:06:09;99707.97;;;24.28;61.13
12203;BME280;6164;42.178;24.622;2022-07-29T06:08:36;99717.75;;;24.34;60.94
12203;BME280;6164;42.178;24.622;2022-07-29T06:11:03;99715.69;;;24.41;60.79
12203;BME280;6164;42.178;24.622;2022-07-29T06:13:30;99715.44;;;24.43;61.91
12203;BME280;6164;42.178;24.622;2022-07-29T06:15:56;99712.00;;;24.52;61.63
12203;BME280;6164;42.178;24.622;2022-07-29T06:18:23;99708.41;;;24.68;61.57
12203;BME280;6164;42.178;24.622;2022-07-29T06:20:49;99709.34;;;24.84;62.11
12203;BME280;6164;42.178;24.622;2022-07-29T06:23:17;99714.50;;;24.86;58.96
12203;BME280;6164;42.178;24.622;2022-07-29T06:25:44;99711.63;;;24.97;58.92
12203;BME280;6164;42.178;24.622;2022-07-29T06:28:11;99719.50;;;25.04;58.37
12203;BME280;6164;42.178;24.622;2022-07-29T06:30:37;99710.69;;;25.18;58.95
12203;BME280;6164;42.178;24.622;2022-07-29T06:33:04;99709.19;;;25.37;58.63
12203;BME280;6164;42.178;24.622;2022-07-29T06:35:32;99712.81;;;25.53;58.05
12203;BME280;6164;42.178;24.622;2022-07-29T06:38:00;99706.59;;;25.52;57.44
12203;BME280;6164;42.178;24.622;2022-07-29T06:40:27;99710.16;;;25.63;57.35
12203;BME280;6164;42.178;24.622;2022-07-29T06:43:12;99704.28;;;25.76;58.14
12203;BME280;6164;42.178;24.622;2022-07-29T06:45:38;99704.31;;;25.81;57.97
12203;BME280;6164;42.178;24.622;2022-07-29T06:48:06;99709.78;;;25.96;57.54
12203;BME280;6164;42.178;24.622;2022-07-29T06:50:35;99709.88;;;26.11;57.33
12203;BME280;6164;42.178;24.622;2022-07-29T06:53:01;99704.72;;;26.25;57.06
12203;BME280;6164;42.178;24.622;2022-07-29T06:55:29;99707.19;;;26.36;57.15
12203;BME280;6164;42.178;24.622;2022-07-29T06:57:56;99705.59;;;26.50;56.41
12203;BME280;6164;42.178;24.622;2022-07-29T07:00:22;99706.13;;;26.62;56.03
12203;BME280;6164;42.178;24.622;2022-07-29T07:02:49;99701.31;;;26.74;55.76
12203;BME280;6164;42.178;24.622;2022-07-29T07:05:15;99699.97;;;26.87;54.89
12203;BME280;6164;42.178;24.622;2022-07-29T07:07:42;99704.56;;;26.91;54.36
12203;BME280;6164;42.178;24.622;2022-07-29T07:10:08;99704.03;;;26.94;54.91
12203;BME280;6164;42.178;24.622;2022-07-29T07:12:36;99707.28;;;26.91;54.74
12203;BME280;6164;42.178;24.622;2022-07-29T07:15:03;99697.78;;;26.94;53.87
12203;BME280;6164;42.178;24.622;2022-07-29T07:17:30;99695.63;;;26.96;54.40
12203;BME280;6164;42.178;24.622;2022-07-29T07:19:56;99697.22;;;27.07;54.51
12203;BME280;6164;42.178;24.622;2022-07-29T07:22:23;99691.53;;;27.18;55.01
12203;BME280;6164;42.178;24.622;2022-07-29T07:24:49;99693.19;;;27.30;52.81
12203;BME280;6164;42.178;24.622;2022-07-29T07:27:15;99694.78;;;27.36;51.76
12203;BME280;6164;42.178;24.622;2022-07-29T07:29:43;99699.63;;;27.49;52.25
12203;BME280;6164;42.178;24.622;2022-07-29T07:32:10;99696.06;;;27.53;51.42
12203;BME280;6164;42.178;24.622;2022-07-29T07:34:38;99694.97;;;27.64;51.24
12203;BME280;6164;42.178;24.622;2022-07-29T07:37:04;99696.28;;;27.72;50.67
12203;BME280;6164;42.178;24.622;2022-07-29T07:39:31;99694.41;;;27.72;51.29
12203;BME280;6164;42.178;24.622;2022-07-29T07:41:57;99688.66;;;27.79;50.15
12203;BME280;6164;42.178;24.622;2022-07-29T07:44:24;99696.28;;;27.72;49.99
12203;BME280;6164;42.178;24.622;2022-07-29T07:46:52;99694.41;;;27.72;50.32
12203;BME280;6164;42.178;24.622;2022-07-29T07:49:18;99700.06;;;27.81;49.58
12203;BME280;6164;42.178;24.622;2022-07-29T07:51:45;99691.34;;;27.94;49.74
12203;BME280;6164;42.178;24.622;2022-07-29T07:54:11;99702.97;;;27.99;47.99
12203;BME280;6164;42.178;24.622;2022-07-29T07:56:38;99699.94;;;28.11;48.34
12203;BME280;6164;42.178;24.622;2022-07-29T07:59:04;99695.28;;;28.21;47.75
12203;BME280;6164;42.178;24.622;2022-07-29T08:01:30;99698.72;;;28.32;46.46
12203;BME280;6164;42.178;24.622;2022-07-29T08:03:58;99697.09;;;28.31;46.72
12203;BME280;6164;42.178;24.622;2022-07-29T08:06:25;99695.94;;;28.42;47.51
12203;BME280;6164;42.178;24.622;2022-07-29T08:08:51;99695.91;;;28.52;47.01
12203;BME280;6164;42.178;24.622;2022-07-29T08:11:18;99696.69;;;28.58;46.53
12203;BME280;6164;42.178;24.622;2022-07-29T08:13:46;99692.50;;;28.70;46.03
12203;BME280;6164;42.178;24.622;2022-07-29T08:16:13;99690.25;;;28.82;46.90
12203;BME280;6164;42.178;24.622;2022-07-29T08:18:40;99685.25;;;28.94;46.87
12203;BME280;6164;42.178;24.622;2022-07-29T08:21:08;99692.19;;;29.05;45.58
12203;BME280;6164;42.178;24.622;2022-07-29T08:23:35;99690.78;;;29.13;46.15
12203;BME280;6164;42.178;24.622;2022-07-29T08:26:04;99701.56;;;29.23;45.11
12203;BME280;6164;42.178;24.622;2022-07-29T08:28:35;99689.31;;;29.25;45.18
12203;BME280;6164;42.178;24.622;2022-07-29T08:31:01;99683.59;;;29.27;43.63
12203;BME280;6164;42.178;24.622;2022-07-29T08:33:28;99684.56;;;29.36;44.92
12203;BME280;6164;42.178;24.622;2022-07-29T08:35:54;99680.47;;;29.38;43.83
12203;BME280;6164;42.178;24.622;2022-07-29T08:38:22;99681.25;;;29.44;43.83
12203;BME280;6164;42.178;24.622;2022-07-29T08:40:49;99682.66;;;29.36;42.57
12203;BME280;6164;42.178;24.622;2022-07-29T08:43:15;99673.22;;;29.52;44.19
12203;BME280;6164;42.178;24.622;2022-07-29T08:45:42;99676.09;;;29.66;41.58
12203;BME280;6164;42.178;24.622;2022-07-29T08:48:11;99678.94;;;29.80;42.56
12203;BME280;6164;42.178;24.622;2022-07-29T08:50:37;99679.31;;;29.92;42.29
12203;BME280;6164;42.178;24.622;2022-07-29T08:53:04;99667.41;;;30.06;43.29
12203;BME280;6164;42.178;24.622;2022-07-29T08:55:32;99665.00;;;30.23;42.94
12203;BME280;6164;42.178;24.622;2022-07-29T08:57:59;99695.19;;;30.27;39.47
12203;BME280;6164;42.178;24.622;2022-07-29T09:00:26;99687.38;;;30.39;39.83
12203;BME280;6164;42.178;24.622;2022-07-29T09:02:56;99692.53;;;30.40;39.00
12203;BME280;6164;42.178;24.622;2022-07-29T09:05:23;99678.47;;;30.52;39.66
12203;BME280;6164;42.178;24.622;2022-07-29T09:07:50;99670.44;;;30.60;39.46
12203;BME280;6164;42.178;24.622;2022-07-29T09:10:17;99696.56;;;30.61;36.47
12203;BME280;6164;42.178;24.622;2022-07-29T09:12:44;99688.97;;;30.77;36.90
12203;BME280;6164;42.178;24.622;2022-07-29T09:15:11;99681.44;;;30.87;37.71
12203;BME280;6164;42.178;24.622;2022-07-29T09:17:41;99691.47;;;30.92;36.45
12203;BME280;6164;42.178;24.622;2022-07-29T09:20:08;99692.06;;;31.03;35.78
12203;BME280;6164;42.178;24.622;2022-07-29T09:22:35;99690.41;;;31.20;36.45
12203;BME280;6164;42.178;24.622;2022-07-29T09:25:02;99714.34;;;31.23;34.99
12203;BME280;6164;42.178;24.622;2022-07-29T09:27:30;99711.03;;;31.26;34.61
12203;BME280;6164;42.178;24.622;2022-07-29T09:29:59;99705.94;;;31.38;35.21
12203;BME280;6164;42.178;24.622;2022-07-29T09:32:25;99700.38;;;31.43;34.58
12203;BME280;6164;42.178;24.622;2022-07-29T09:37:34;99708.56;;;31.57;34.66
12203;BME280;6164;42.178;24.622;2022-07-29T09:40:00;99730.50;;;31.65;32.93
12203;BME280;6164;42.178;24.622;2022-07-29T09:42:37;99721.38;;;31.70;33.52
12203;BME280;6164;42.178;24.622;2022-07-29T09:45:05;99760.31;;;31.75;32.46
12203;BME280;6164;42.178;24.622;2022-07-29T09:47:40;99772.69;;;31.73;31.64
12203;BME280;6164;42.178;24.622;2022-07-29T09:50:07;99770.53;;;31.83;31.62
12203;BME280;6164;42.178;24.622;2022-07-29T09:52:41;99741.75;;;31.91;32.76
12203;BME280;6164;42.178;24.622;2022-07-29T09:55:10;99749.03;;;32.09;32.04
12203;BME280;6164;42.178;24.622;2022-07-29T09:57:37;99753.97;;;32.21;31.15
12203;BME280;6164;42.178;24.622;2022-07-29T10:00:05;99754.34;;;32.28;31.69
12203;BME280;6164;42.178;24.622;2022-07-29T10:02:34;99763.69;;;32.40;31.41
12203;BME280;6164;42.178;24.622;2022-07-29T10:05:02;99760.94;;;32.40;32.09
12203;BME280;6164;42.178;24.622;2022-07-29T10:07:42;99793.75;;;32.40;30.61
12203;BME280;6164;42.178;24.622;2022-07-29T10:10:09;99750.22;;;32.44;32.13
12203;BME280;6164;42.178;24.622;2022-07-29T10:12:43;99769.69;;;32.51;31.52
12203;BME280;6164;42.178;24.622;2022-07-29T10:15:15;99761.78;;;32.63;30.52
12203;BME280;6164;42.178;24.622;2022-07-29T10:17:42;99767.44;;;32.66;30.55
12203;BME280;6164;42.178;24.622;2022-07-29T10:20:09;99763.03;;;32.79;29.97
12203;BME280;6164;42.178;24.622;2022-07-29T10:22:36;99779.19;;;32.89;30.16
12203;BME280;6164;42.178;24.622;2022-07-29T10:25:02;99801.00;;;32.94;29.21
12203;BME280;6164;42.178;24.622;2022-07-29T10:27:29;99796.44;;;32.89;29.74
12203;BME280;6164;42.178;24.622;2022-07-29T10:29:55;99785.59;;;32.98;29.58
12203;BME280;6164;42.178;24.622;2022-07-29T10:32:29;99785.34;;;33.08;30.61
12203;BME280;6164;42.178;24.622;2022-07-29T10:37:52;99768.44;;;33.36;30.45
12203;BME280;6164;42.178;24.622;2022-07-29T10:40:26;99802.38;;;33.49;28.65
12203;BME280;6164;42.178;24.622;2022-07-29T10:43:15;99814.31;;;33.53;28.75
12203;BME280;6164;42.178;24.622;2022-07-29T10:45:44;99804.09;;;33.67;28.47
12203;BME280;6164;42.178;24.622;2022-07-29T10:48:12;99827.22;;;33.61;27.64
12203;BME280;6164;42.178;24.622;2022-07-29T10:50:51;99795.28;;;33.79;29.92
12203;BME280;6164;42.178;24.622;2022-07-29T10:53:18;99806.25;;;33.87;28.90
12203;BME280;6164;42.178;24.622;2022-07-29T10:55:44;99786.28;;;33.87;28.99
12203;BME280;6164;42.178;24.622;2022-07-29T10:58:14;99792.72;;;33.91;28.21
12203;BME280;6164;42.178;24.622;2022-07-29T11:00:40;99772.78;;;33.90;30.55
12203;BME280;6164;42.178;24.622;2022-07-29T11:03:07;99787.47;;;33.94;29.10
12203;BME280;6164;42.178;24.622;2022-07-29T11:05:54;99806.44;;;33.91;28.08
12203;BME280;6164;42.178;24.622;2022-07-29T11:08:22;99780.41;;;34.10;29.25
12203;BME280;6164;42.178;24.622;2022-07-29T11:10:51;99788.16;;;34.17;29.52
12203;BME280;6164;42.178;24.622;2022-07-29T11:16:03;99833.06;;;34.38;26.82
12203;BME280;6164;42.178;24.622;2022-07-29T11:18:31;99797.47;;;34.64;27.72
12203;BME280;6164;42.178;24.622;2022-07-29T11:21:00;99823.31;;;34.63;27.00
12203;BME280;6164;42.178;24.622;2022-07-29T11:23:27;99820.22;;;34.81;27.07
12203;BME280;6164;42.178;24.622;2022-07-29T11:28:35;99833.00;;;34.86;26.76
12203;BME280;6164;42.178;24.622;2022-07-29T11:31:05;99817.53;;;34.98;27.59
12203;BME280;6164;42.178;24.622;2022-07-29T11:33:34;99820.94;;;35.04;26.95
12203;BME280;6164;42.178;24.622;2022-07-29T11:36:11;99827.84;;;35.01;27.22
12203;BME280;6164;42.178;24.622;2022-07-29T11:38:38;99800.25;;;35.15;27.38
12203;BME280;6164;42.178;24.622;2022-07-29T11:43:55;99798.44;;;35.27;27.44
12203;BME280;6164;42.178;24.622;2022-07-29T11:49:07;99799.44;;;35.40;27.27
12203;BME280;6164;42.178;24.622;2022-07-29T11:51:35;99785.03;;;35.51;27.60
12203;BME280;6164;42.178;24.622;2022-07-29T11:54:02;99763.31;;;35.67;27.50
12203;BME280;6164;42.178;24.622;2022-07-29T11:56:29;99802.25;;;35.69;26.37
12203;BME280;6164;42.178;24.622;2022-07-29T11:59:02;99791.56;;;35.76;27.08
12203;BME280;6164;42.178;24.622;2022-07-29T12:01:29;99777.16;;;35.88;27.24
12203;BME280;6164;42.178;24.622;2022-07-29T12:04:01;99749.72;;;36.08;28.44
12203;BME280;6164;42.178;24.622;2022-07-29T12:06:28;99769.03;;;36.20;27.18
12203;BME280;6164;42.178;24.622;2022-07-29T12:08:56;99739.22;;;36.39;27.66
12203;BME280;6164;42.178;24.622;2022-07-29T12:11:22;99775.25;;;36.38;26.84
12203;BME280;6164;42.178;24.622;2022-07-29T12:13:49;99760.97;;;36.44;27.07
12203;BME280;6164;42.178;24.622;2022-07-29T12:16:16;99761.41;;;36.55;26.92
12203;BME280;6164;42.178;24.622;2022-07-29T12:18:48;99761.19;;;36.60;26.46
12203;BME280;6164;42.178;24.622;2022-07-29T12:21:20;99786.81;;;36.52;26.08
12203;BME280;6164;42.178;24.622;2022-07-29T12:23:51;99777.97;;;36.46;26.03
12203;BME280;6164;42.178;24.622;2022-07-29T12:26:20;99778.50;;;36.40;26.96
12203;BME280;6164;42.178;24.622;2022-07-29T12:28:46;99766.41;;;36.53;27.08
12203;BME280;6164;42.178;24.622;2022-07-29T12:31:13;99763.28;;;36.63;26.38
12203;BME280;6164;42.178;24.622;2022-07-29T12:33:40;99769.72;;;36.67;26.26
12203;BME280;6164;42.178;24.622;2022-07-29T12:36:07;99743.91;;;36.80;27.42
12203;BME280;6164;42.178;24.622;2022-07-29T12:38:34;99760.25;;;36.76;26.06
12203;BME280;6164;42.178;24.622;2022-07-29T12:41:00;99770.28;;;36.81;26.36
12203;BME280;6164;42.178;24.622;2022-07-29T12:43:28;99749.69;;;36.99;25.96
12203;BME280;6164;42.178;24.622;2022-07-29T12:45:55;99761.72;;;37.15;26.24
12203;BME280;6164;42.178;24.622;2022-07-29T12:48:32;99768.97;;;37.32;25.90
12203;BME280;6164;42.178;24.622;2022-07-29T12:51:00;99767.34;;;37.51;25.19
12203;BME280;6164;42.178;24.622;2022-07-29T12:53:27;99777.19;;;37.52;25.73
12203;BME280;6164;42.178;24.622;2022-07-29T12:55:54;99776.41;;;37.64;25.73
12203;BME280;6164;42.178;24.622;2022-07-29T12:58:29;99769.06;;;37.68;25.09
12203;BME280;6164;42.178;24.622;2022-07-29T13:01:00;99784.44;;;37.69;25.14
12203;BME280;6164;42.178;24.622;2022-07-29T13:03:27;99794.09;;;37.63;25.01
12203;BME280;6164;42.178;24.622;2022-07-29T13:05:54;99810.84;;;37.58;24.38
12203;BME280;6164;42.178;24.622;2022-07-29T13:08:20;99758.84;;;37.68;26.97
12203;BME280;6164;42.178;24.622;2022-07-29T13:10:47;99795.34;;;37.65;24.78
12203;BME280;6164;42.178;24.622;2022-07-29T13:13:14;99804.09;;;37.67;24.81
12203;BME280;6164;42.178;24.622;2022-07-29T13:15:43;99765.88;;;37.78;25.37
12203;BME280;6164;42.178;24.622;2022-07-29T13:18:28;99751.09;;;37.82;26.12
12203;BME280;6164;42.178;24.622;2022-07-29T13:20:55;99763.13;;;37.90;24.50